createdAt,value
2018-08-10T00:01:46.548Z,3.33
2018-08-10T00:04:20.040Z,3.42
2018-08-10T00:06:53.443Z,2.62
2018-08-10T00:09:26.889Z,3.30
2018-08-10T00:12:00.275Z,3.17
2018-08-10T00:14:33.791Z,2.50
2018-08-10T00:17:07.263Z,2.60
2018-08-10T00:19:40.728Z,2.08
2018-08-10T00:22:14.268Z,2.15
2018-08-10T00:24:47.740Z,1.95
2018-08-10T00:27:21.266Z,1.82
2018-08-10T00:29:54.704Z,1.30
2018-08-10T00:32:28.125Z,1.52
2018-08-10T00:35:01.538Z,1.35
2018-08-10T00:37:35.004Z,1.30
2018-08-10T00:40:24.505Z,1.17
2018-08-10T00:42:58.524Z,1.47
2018-08-10T00:45:32.008Z,1.57
2018-08-10T00:48:05.579Z,1.25
2018-08-10T00:50:39.072Z,1.27
2018-08-10T00:53:12.477Z,1.15
2018-08-10T00:55:45.934Z,1.10
2018-08-10T00:58:19.366Z,1.10
2018-08-10T01:00:52.889Z,1.50
2018-08-10T01:03:26.317Z,1.15
2018-08-10T01:05:59.719Z,1.17
2018-08-10T01:08:33.165Z,1.10
2018-08-10T01:11:06.588Z,0.95
2018-08-10T01:13:40.031Z,1.52
2018-08-10T01:16:13.507Z,1.12
2018-08-10T01:18:46.952Z,0.90
2018-08-10T01:21:20.400Z,1.40
2018-08-10T01:23:53.882Z,1.10
2018-08-10T01:26:27.257Z,1.20
2018-08-10T01:29:00.869Z,1.10
2018-08-10T01:31:34.172Z,0.90
2018-08-10T01:34:07.675Z,1.35
2018-08-10T01:36:41.112Z,0.75
2018-08-10T01:39:14.575Z,0.80
2018-08-10T01:41:47.992Z,1.07
2018-08-10T01:44:21.431Z,1.07
2018-08-10T01:46:54.851Z,0.95
2018-08-10T01:49:28.267Z,1.07
2018-08-10T01:52:01.721Z,0.80
2018-08-10T01:54:35.150Z,0.90
2018-08-10T01:57:08.532Z,0.80
2018-08-10T01:59:42.949Z,0.85
2018-08-10T02:02:16.375Z,1.00
2018-08-10T02:04:49.822Z,0.80
2018-08-10T02:07:23.267Z,0.85
2018-08-10T02:09:56.669Z,0.60
2018-08-10T02:12:30.127Z,0.70
2018-08-10T02:15:03.607Z,0.62
2018-08-10T02:17:37.384Z,0.50
2018-08-10T02:20:12.719Z,0.60
2018-08-10T02:22:46.620Z,0.70
2018-08-10T02:25:21.386Z,0.50
2018-08-10T02:27:54.809Z,0.50
2018-08-10T02:30:28.227Z,0.40
2018-08-10T02:33:01.633Z,0.50
2018-08-10T02:35:35.124Z,0.50
2018-08-10T02:38:08.522Z,0.45
2018-08-10T02:40:41.947Z,0.50
2018-08-10T02:43:15.321Z,0.33
2018-08-10T02:45:48.730Z,0.40
2018-08-10T02:48:22.176Z,0.55
2018-08-10T02:50:55.626Z,0.47
2018-08-10T02:53:29.024Z,0.45
2018-08-10T02:56:02.512Z,0.60
2018-08-10T02:58:35.951Z,0.50
2018-08-10T03:01:09.441Z,0.30
2018-08-10T03:03:42.940Z,0.60
2018-08-10T03:06:16.364Z,0.47
2018-08-10T03:08:49.871Z,0.50
2018-08-10T03:11:23.225Z,0.42
2018-08-10T03:13:56.651Z,0.50
2018-08-10T03:16:30.071Z,0.50
2018-08-10T03:19:03.530Z,0.55
2018-08-10T03:21:36.954Z,0.50
2018-08-10T03:24:10.390Z,0.40
2018-08-10T03:26:43.770Z,0.50
2018-08-10T03:29:17.197Z,0.55
2018-08-10T03:31:50.612Z,0.60
2018-08-10T03:34:24.076Z,0.40
2018-08-10T03:36:57.585Z,0.40
2018-08-10T03:39:31.004Z,0.47
2018-08-10T03:42:04.472Z,0.50
2018-08-10T03:44:37.871Z,0.45
2018-08-10T03:47:11.268Z,0.50
2018-08-10T03:49:44.710Z,0.45
2018-08-10T03:52:18.125Z,0.50
2018-08-10T03:54:51.553Z,0.50
2018-08-10T03:57:25.101Z,0.50
2018-08-10T03:59:58.506Z,0.50
2018-08-10T04:02:31.975Z,0.37
2018-08-10T04:05:05.638Z,0.47
2018-08-10T04:07:39.267Z,0.60
2018-08-10T04:10:12.743Z,0.60
2018-08-10T04:12:46.187Z,0.57
2018-08-10T04:15:19.569Z,0.65
2018-08-10T04:17:53.017Z,0.40
2018-08-10T04:20:26.485Z,0.60
2018-08-10T04:22:59.933Z,0.60
2018-08-10T04:25:33.360Z,0.53
2018-08-10T04:28:06.880Z,0.50
2018-08-10T04:30:40.268Z,0.55
2018-08-10T04:33:13.699Z,0.70
2018-08-10T04:35:47.107Z,0.65
2018-08-10T04:38:20.564Z,0.47
2018-08-10T04:40:54.000Z,0.53
2018-08-10T04:43:27.468Z,0.55
2018-08-10T04:46:00.874Z,0.50
2018-08-10T04:48:34.324Z,0.57
2018-08-10T04:51:07.720Z,0.40
2018-08-10T04:53:41.215Z,0.50
2018-08-10T04:56:14.641Z,0.50
2018-08-10T04:58:48.121Z,0.60
2018-08-10T05:01:21.516Z,0.70
2018-08-10T05:03:55.110Z,0.50
2018-08-10T05:06:28.553Z,0.60
2018-08-10T05:09:02.054Z,0.53
2018-08-10T05:11:35.539Z,0.62
2018-08-10T05:14:09.279Z,0.60
2018-08-10T05:16:43.029Z,0.53
2018-08-10T05:19:16.497Z,0.60
2018-08-10T05:21:49.956Z,0.60
2018-08-10T05:24:23.418Z,0.60
2018-08-10T05:26:56.882Z,0.53
2018-08-10T05:29:30.288Z,0.80
2018-08-10T05:32:03.741Z,0.70
2018-08-10T05:34:37.136Z,0.50
2018-08-10T05:37:10.568Z,0.72
2018-08-10T05:39:44.011Z,0.60
2018-08-10T05:42:17.604Z,0.60
2018-08-10T05:44:50.996Z,0.72
2018-08-10T05:47:55.620Z,0.80
2018-08-10T05:50:28.992Z,0.60
2018-08-10T05:53:02.437Z,0.68
2018-08-10T05:55:35.850Z,0.60
2018-08-10T05:58:09.293Z,0.70
2018-08-10T06:00:42.741Z,0.60
2018-08-10T06:03:16.138Z,0.72
2018-08-10T06:05:49.579Z,0.60
2018-08-10T06:08:23.013Z,0.70
2018-08-10T06:10:56.452Z,0.80
2018-08-10T06:13:29.844Z,0.60
2018-08-10T06:19:34.403Z,0.70
2018-08-10T06:24:37.757Z,0.60
2018-08-10T06:29:41.180Z,0.90
2018-08-10T06:34:44.641Z,0.60
2018-08-10T06:39:48.071Z,0.70
2018-08-10T06:44:51.616Z,0.80
2018-08-10T06:49:55.063Z,0.65
2018-08-10T06:54:58.498Z,0.50
2018-08-10T07:00:02.041Z,0.40
2018-08-10T07:05:06.064Z,0.53
2018-08-10T07:10:09.496Z,0.47
2018-08-10T07:15:12.948Z,0.50
2018-08-10T07:20:16.385Z,0.40
2018-08-10T07:25:19.828Z,0.45
2018-08-10T07:30:23.301Z,0.30
2018-08-10T07:35:26.755Z,0.40
2018-08-10T07:40:30.219Z,0.50
2018-08-10T07:45:33.677Z,0.40
2018-08-10T07:50:37.143Z,0.60
2018-08-10T07:55:40.597Z,0.70
2018-08-10T08:00:44.029Z,0.53
2018-08-10T08:05:47.511Z,0.40
2018-08-10T08:10:50.962Z,0.72
2018-08-10T08:15:54.419Z,0.60
2018-08-10T08:21:08.516Z,0.50
2018-08-10T08:26:11.985Z,0.90
2018-08-10T08:31:15.516Z,0.57
2018-08-10T08:36:19.012Z,0.42
2018-08-10T08:41:22.515Z,0.40
2018-08-10T08:46:26.234Z,0.50
2018-08-10T08:51:29.500Z,0.30
2018-08-10T08:56:43.301Z,0.40
2018-08-10T09:01:46.771Z,0.42
2018-08-10T09:06:50.955Z,0.30
2018-08-10T09:11:54.446Z,0.60
2018-08-10T09:16:57.936Z,0.40
2018-08-10T09:22:01.432Z,0.30
2018-08-10T09:27:05.108Z,0.50
2018-08-10T09:32:08.565Z,0.37
2018-08-10T09:37:12.180Z,0.55
2018-08-10T09:42:15.751Z,0.47
2018-08-10T09:47:19.164Z,0.60
2018-08-10T09:52:22.624Z,0.50
2018-08-10T09:57:26.085Z,0.50
2018-08-10T10:02:33.808Z,0.53
2018-08-10T10:07:37.256Z,0.40
2018-08-10T10:12:40.741Z,0.30
2018-08-10T10:17:44.223Z,0.42
2018-08-10T10:22:48.405Z,0.60
2018-08-10T10:27:51.877Z,0.40
2018-08-10T10:32:55.441Z,0.65
2018-08-10T10:37:59.025Z,0.70
2018-08-10T10:43:02.506Z,0.65
2018-08-10T10:48:06.647Z,0.55
2018-08-10T10:53:10.168Z,0.50
2018-08-10T10:58:13.761Z,0.50
2018-08-10T11:03:17.295Z,0.60
2018-08-10T11:08:20.779Z,0.62
2018-08-10T11:13:24.232Z,0.60
2018-08-10T11:18:27.778Z,0.70
2018-08-10T11:23:31.252Z,0.40
2018-08-10T11:28:34.711Z,0.30
2018-08-10T11:33:38.206Z,0.45
2018-08-10T11:38:41.643Z,0.50
2018-08-10T11:43:45.113Z,0.40
2018-08-10T11:48:49.318Z,0.40
2018-08-10T11:53:52.936Z,0.60
2018-08-10T11:58:56.417Z,0.37
2018-08-10T12:03:59.912Z,0.50
2018-08-10T12:09:04.744Z,0.50
2018-08-10T12:14:08.436Z,0.40
2018-08-10T12:19:11.971Z,0.40
2018-08-10T12:24:15.417Z,0.40
2018-08-10T12:29:18.922Z,0.40
2018-08-10T12:34:22.428Z,0.40
2018-08-10T12:39:25.933Z,0.47
2018-08-10T12:44:29.405Z,0.40
2018-08-10T12:49:32.888Z,0.40
2018-08-10T12:54:36.320Z,0.42
2018-08-10T12:59:39.873Z,0.50
2018-08-10T13:04:43.380Z,0.40
2018-08-10T13:09:46.920Z,0.40
2018-08-10T13:14:50.396Z,0.50
2018-08-10T13:19:53.877Z,0.50
2018-08-10T13:24:57.378Z,0.50
2018-08-10T13:30:00.863Z,0.70
2018-08-10T13:35:05.327Z,0.40
2018-08-10T13:40:08.910Z,0.40
2018-08-10T13:45:13.550Z,0.42
2018-08-10T13:50:17.113Z,0.42
2018-08-10T13:55:20.570Z,0.42
2018-08-10T14:00:25.181Z,0.50
2018-08-10T14:05:28.746Z,0.68
2018-08-10T14:10:32.204Z,0.50
2018-08-10T14:15:35.745Z,0.60
2018-08-10T14:20:39.270Z,0.60
2018-08-10T14:25:42.789Z,0.60
2018-08-10T14:30:46.271Z,0.50
2018-08-10T14:35:49.779Z,0.60
2018-08-10T14:40:53.263Z,0.50
2018-08-10T14:45:56.807Z,0.50
2018-08-10T14:51:00.340Z,0.60
2018-08-10T14:56:03.926Z,0.72
2018-08-10T15:01:07.509Z,0.40
2018-08-10T15:06:11.041Z,0.45
2018-08-10T15:11:14.656Z,0.47
2018-08-10T15:16:18.157Z,0.45
2018-08-10T15:21:21.605Z,0.50
2018-08-10T15:26:25.101Z,0.40
2018-08-10T15:31:28.592Z,0.62
2018-08-10T15:36:32.096Z,0.47
2018-08-10T15:41:35.624Z,0.70
2018-08-10T15:46:39.133Z,0.40
2018-08-10T15:51:42.616Z,0.70
2018-08-10T15:56:46.060Z,0.55
2018-08-10T16:01:49.586Z,0.60
2018-08-10T16:06:53.057Z,0.42
2018-08-10T16:11:56.603Z,0.50
2018-08-10T16:17:00.092Z,0.40
2018-08-10T16:22:03.651Z,0.60
2018-08-10T16:27:07.201Z,0.55
2018-08-10T16:32:10.686Z,0.60
2018-08-10T16:37:14.169Z,0.40
2018-08-10T16:42:17.600Z,0.40
2018-08-10T16:47:21.088Z,0.72
2018-08-10T16:52:24.568Z,0.42
2018-08-10T16:57:28.065Z,0.42
2018-08-10T17:02:31.525Z,0.65
2018-08-10T17:07:35.042Z,0.93
2018-08-10T17:12:39.953Z,0.53
2018-08-10T17:17:44.397Z,0.60
2018-08-10T17:22:47.937Z,0.50
2018-08-10T17:27:51.436Z,0.45
2018-08-10T17:32:54.948Z,0.70
2018-08-10T17:37:58.442Z,1.17
2018-08-10T17:43:01.879Z,1.25
2018-08-10T17:48:05.556Z,0.57
2018-08-10T17:53:09.060Z,0.53
2018-08-10T17:58:12.596Z,0.65
2018-08-10T18:03:16.182Z,0.60
2018-08-10T18:08:19.676Z,0.80
2018-08-10T18:13:23.209Z,0.82
2018-08-10T18:18:26.735Z,0.70
2018-08-10T18:23:30.281Z,0.75
2018-08-10T18:28:33.858Z,1.12
2018-08-10T18:33:37.376Z,1.10
2018-08-10T18:38:40.831Z,1.00
2018-08-10T18:43:44.345Z,1.10
2018-08-10T18:48:47.919Z,1.30
2018-08-10T18:53:51.430Z,1.00
2018-08-10T18:58:54.936Z,1.12
2018-08-10T19:03:58.503Z,1.00
2018-08-10T19:09:01.978Z,1.10
2018-08-10T19:14:05.596Z,1.10
2018-08-10T19:19:09.085Z,0.90
2018-08-10T19:24:12.617Z,1.22
2018-08-10T19:29:16.173Z,1.05
2018-08-10T19:34:19.683Z,1.12
2018-08-10T19:39:23.225Z,0.95
2018-08-10T19:44:26.843Z,1.02
2018-08-10T19:49:30.330Z,0.88
2018-08-10T19:54:34.100Z,1.10
2018-08-10T19:59:37.678Z,1.20
2018-08-10T20:04:41.223Z,1.30
2018-08-10T20:09:44.743Z,1.80
2018-08-10T20:14:48.390Z,1.72
2018-08-10T20:19:51.918Z,1.45
2018-08-10T20:24:55.541Z,1.22
2018-08-10T20:29:59.036Z,1.20
2018-08-10T20:35:02.595Z,1.20
2018-08-10T20:40:07.605Z,0.90
2018-08-10T20:45:11.293Z,0.78
2018-08-10T20:50:16.679Z,0.80
2018-08-10T20:55:20.260Z,0.80
2018-08-10T21:00:23.800Z,0.80
2018-08-10T21:05:27.316Z,0.90
2018-08-10T21:10:30.810Z,1.05
2018-08-10T21:15:34.277Z,1.10
2018-08-10T21:20:37.818Z,1.00
2018-08-10T21:25:41.367Z,0.72
2018-08-10T21:30:44.862Z,0.80
2018-08-10T21:35:48.348Z,0.88
2018-08-10T21:40:51.820Z,1.00
2018-08-10T21:45:55.380Z,1.00
2018-08-10T21:50:58.907Z,0.85
2018-08-10T21:56:02.388Z,0.98
2018-08-10T22:01:05.945Z,0.90
2018-08-10T22:06:09.485Z,1.00
2018-08-10T22:11:12.962Z,0.90
2018-08-10T22:16:21.802Z,1.25
2018-08-10T22:21:25.308Z,1.07
2018-08-10T22:26:28.783Z,1.15
2018-08-10T22:31:32.357Z,0.80
2018-08-10T22:36:35.848Z,1.00
2018-08-10T22:41:39.397Z,1.05
2018-08-10T22:46:42.919Z,0.80
2018-08-10T22:51:46.424Z,1.00
2018-08-10T22:56:49.889Z,1.12
2018-08-10T23:01:53.373Z,1.40
2018-08-10T23:06:56.884Z,1.10
2018-08-10T23:12:00.348Z,1.40
2018-08-10T23:17:03.875Z,1.30
2018-08-10T23:22:07.400Z,1.23
2018-08-10T23:27:10.884Z,1.10
2018-08-10T23:32:14.412Z,1.00
2018-08-10T23:37:17.899Z,1.10
2018-08-10T23:42:21.429Z,1.23
2018-08-10T23:47:24.921Z,1.23
2018-08-10T23:52:28.395Z,1.10
2018-08-10T23:57:31.843Z,1.30
